Time;durP1;ratioP1;P1;durP2;ratioP2;P2;SDS_P1;SDS_P2;PMS_P1;PMS_P2;Temp;Humidity;BMP_temperature;BMP_pressure;BME280_temperature;BME280_humidity;BME280_pressure;Samples;Min_cycle;Max_cycle;Signal;HPM_P1;HPM_P2
2021/11/24 00:00:19;;;;;;;;;;;;;;;;;;1013677;29;1050;-37
2021/11/24 00:00:50;;;;;;;;;;;;;;;;;;1013450;29;1037;-35
2021/11/24 00:01:20;;;;;;;;;;;;;;;;;;1013682;29;901;-36
2021/11/24 00:01:51;;;;;;;;;;;;;;;;;;1013671;29;875;-36
2021/11/24 00:02:21;;;;;;;;;;;;;;;;;;1013614;29;887;-36
2021/11/24 00:02:52;;;;;;;;;;;;;;;;;;1013403;29;1046;-38
2021/11/24 00:03:22;;;;;;;;;;;;;;;;;;1013573;29;1046;-37
2021/11/24 00:03:53;;;;;;;;;;;;;;;;;;1013408;29;891;-37
2021/11/24 00:04:23;;;;;;;;;;;;;;;;;;1013777;29;933;-37
2021/11/24 00:04:54;;;;;;;;;;;;;;;;;;1013375;29;934;-34
2021/11/24 00:05:24;;;;;;;;;;;;;;;;;;1013802;29;983;-33
2021/11/24 00:05:55;;;;;;;;;;;;;;;;;;1013599;29;885;-33
2021/11/24 00:06:25;;;;;;;;;;;;;;;;;;1013576;29;1065;-33
2021/11/24 00:06:55;;;;;;;;;;;;;;;;;;1013613;29;967;-38
2021/11/24 00:07:27;;;;;;;;;;;;;;;;;;1013013;29;990;-37
2021/11/24 00:07:59;;;;;;;;;;;;;;;;;;1012752;29;896;-37
2021/11/24 00:08:29;;;;;;;;;;;;;;;;;;1012756;29;930;-39
2021/11/24 00:08:59;;;;;;;;;;;;;;;;;;1012889;29;894;-35
2021/11/24 00:09:33;;;;;;;;;;;;;;;;;;1013606;29;1978;-36
2021/11/24 00:10:03;;;;;;;;;;;;;;;;;;1013633;29;889;-38
2021/11/24 00:10:35;;;;;;;;;;;;;;;;;;1013365;29;1318;-36
2021/11/24 00:11:05;;;;;;;;;;;;;;;;;;1013063;29;999;-35
2021/11/24 00:11:36;;;;;;;;;;;;;;;;;;1013239;29;858;-37
2021/11/24 00:12:06;;;;;;;;;;;;;;;;;;1013355;29;1055;-37
2021/11/24 00:12:37;;;;;;;;;;;;;;;;;;1013574;29;945;-35
2021/11/24 00:13:07;;;;;;;;;;;;;;;;;;1013524;29;1078;-36
2021/11/24 00:13:41;;;;;;;;;;;;;;;;;;1013538;29;944;-36
2021/11/24 00:14:11;;;;;;;;;;;;;;;;;;1013512;29;772;-33
2021/11/24 00:14:42;;;;;;;;;;;;;;;;;;1013769;29;1018;-36
2021/11/24 00:15:12;;;;;;;;;;;;;;;;;;1013496;29;842;-36
2021/11/24 00:15:43;;;;;;;;;;;;;;;;;;1013704;29;1005;-35
2021/11/24 00:16:13;;;;;;;;;;;;;;;;;;1013622;29;848;-35
2021/11/24 00:16:43;;;;;;;;;;;;;;;;;;1013793;29;780;-35
2021/11/24 00:17:16;;;;;;;;;;;;;;;;;;1013549;29;971;-35
2021/11/24 00:17:47;;;;;;;;;;;;;;;;;;1013151;29;796;-36
2021/11/24 00:18:18;;;;;;;;;;;;;;;;;;1013178;29;784;-36
2021/11/24 00:18:48;;;;;;;;;;;;;;;;;;1005021;29;1073;-34
2021/11/24 00:19:18;;;;;;;;;;;;;;;;;;1005103;29;882;-36
2021/11/24 00:19:49;;;;;;;;;;;;;;;;;;1005288;29;985;-38
2021/11/24 00:20:19;;;;;;;;;;;;;;;;;;1005321;29;895;-37
2021/11/24 00:20:50;;;;;;;;;;;;;;;;;;1013443;29;919;-35
2021/11/24 00:21:21;;;;;;;;;;;;;;;;;;1013454;29;963;-34
2021/11/24 00:21:51;;;;;;;;;;;;;;;;;;1013648;29;1298;-36
2021/11/24 00:22:21;;;;;;;;;;;;;;;;;;1013569;29;1053;-36
2021/11/24 00:22:52;;;;;;;;;;;;;;;;;;1013227;29;970;-40
2021/11/24 00:23:22;;;;;;;;;;;;;;;;;;1013564;29;942;-34
2021/11/24 00:23:53;;;;;;;;;;;;;;;;;;1013155;29;1102;-37
2021/11/24 00:24:23;;;;;;;;;;;;;;;;;;1013872;29;883;-39
2021/11/24 00:24:54;;;;;;;;;;;;;;;;;;1013449;29;962;-33
2021/11/24 00:25:24;;;;;;;;;;;;;;;;;;1013614;29;934;-38
2021/11/24 00:25:54;;;;;;;;;;;;;;;;;;1017330;29;1033;-38
2021/11/24 00:26:25;;;;;;;;;;;;;;;;;;1016313;29;1059;-37
2021/11/24 00:26:55;;;;;;;;;;;;;;;;;;1017229;29;811;-36
2021/11/24 00:27:26;;;;;;;;;;;;;;;;;;1016844;29;1591;-35
2021/11/24 00:27:57;;;;;;;;;;;;;;;;;;1013254;29;1454;-37
2021/11/24 00:28:27;;;;;;;;;;;;;;;;;;1017170;29;1494;-37
2021/11/24 00:29:01;;;;;;;;;;;;;;;;;;1016416;29;1261;-34
2021/11/24 00:29:31;;;;;;;;;;;;;;;;;;1017088;29;2000;-39
2021/11/24 00:30:02;;;;;;;;;;;;;;;;;;1016831;29;982;-39
2021/11/24 00:30:36;;;;;;;;;;;;;;;;;;1015665;29;1141;-36
2021/11/24 00:31:07;;;;;;;;;;;;;;;;;;1017763;29;804;-37
2021/11/24 00:31:37;;;;;;;;;;;;;;;;;;1017190;29;1061;-38
2021/11/24 00:32:11;;;;;;;;;;;;;;;;;;1017520;29;824;-37
2021/11/24 00:32:41;;;;;;;;;;;;;;;;;;1017546;29;960;-38
2021/11/24 00:33:11;;;;;;;;;;;;;;;;;;1017246;29;1113;-37
2021/11/24 00:33:43;;;;;;;;;;;;;;;;;;1021008;29;799;-38
2021/11/24 00:34:13;;;;;;;;;;;;;;;;;;1021056;29;935;-37
2021/11/24 00:34:44;;;;;;;;;;;;;;;;;;1020617;29;1444;-34
2021/11/24 00:35:14;;;;;;;;;;;;;;;;;;1020963;29;968;-36
2021/11/24 00:35:45;;;;;;;;;;;;;;;;;;1017187;29;1042;-34
2021/11/24 00:36:15;;;;;;;;;;;;;;;;;;1017576;29;887;-36
2021/11/24 00:36:49;;;;;;;;;;;;;;;;;;1017488;29;885;-36
2021/11/24 00:37:20;;;;;;;;;;;;;;;;;;1017626;29;792;-34
2021/11/24 00:37:51;;;;;;;;;;;;;;;;;;1017468;29;944;-37
2021/11/24 00:38:21;;;;;;;;;;;;;;;;;;1017164;29;960;-34
2021/11/24 00:39:03;;;;;;;;;;;;;;;;;;1017517;29;811;-37
2021/11/24 00:39:34;;;;;;;;;;;;;;;;;;1016780;29;943;-35
2021/11/24 00:40:08;;;;;;;;;;;;;;;;;;1016827;29;1021;-36
2021/11/24 00:40:38;;;;;;;;;;;;;;;;;;1016572;29;1074;-36
2021/11/24 00:41:15;;;;;;;;;;;;;;;;;;1016863;29;1015;-38
2021/11/24 00:41:45;;;;;;;;;;;;;;;;;;1017488;29;1310;-36
2021/11/24 00:42:16;;;;;;;;;;;;;;;;;;1018080;29;969;-35
2021/11/24 00:42:46;;;;;;;;;;;;;;;;;;1018132;29;1035;-38
2021/11/24 00:43:23;;;;;;;;;;;;;;;;;;1017933;29;1200;-37
2021/11/24 00:43:53;;;;;;;;;;;;;;;;;;1018317;29;918;-37
2021/11/24 00:44:24;;;;;;;;;;;;;;;;;;1018302;29;1011;-36
2021/11/24 00:44:54;;;;;;;;;;;;;;;;;;1017940;29;922;-36
2021/11/24 00:45:24;;;;;;;;;;;;;;;;;;1018439;29;961;-36
2021/11/24 00:45:55;;;;;;;;;;;;;;;;;;1017885;29;1329;-35
2021/11/24 00:46:27;;;;;;;;;;;;;;;;;;1018482;29;894;-36
2021/11/24 00:46:57;;;;;;;;;;;;;;;;;;1018286;29;912;-33
2021/11/24 00:47:28;;;;;;;;;;;;;;;;;;1018313;29;939;-36
2021/11/24 00:47:58;;;;;;;;;;;;;;;;;;1018119;29;995;-37
2021/11/24 00:48:29;;;;;;;;;;;;;;;;;;1018035;29;944;-38
2021/11/24 00:49:00;;;;;;;;;;;;;;;;;;1018196;29;809;-36
2021/11/24 00:49:30;;;;;;;;;;;;;;;;;;1018324;29;1915;-36
2021/11/24 00:50:01;;;;;;;;;;;;;;;;;;1018189;29;791;-36
2021/11/24 00:50:32;;;;;;;;;;;;;;;;;;1018287;29;965;-33
2021/11/24 00:51:03;;;;;;;;;;;;;;;;;;1017835;29;1067;-38
2021/11/24 00:51:33;;;;;;;;;;;;;;;;;;1018350;29;828;-36
2021/11/24 00:52:10;;;;;;;;;;;;;;;;;;1018417;29;877;-37
2021/11/24 00:52:40;;;;;;;;;;;;;;;;;;1017996;29;843;-34
2021/11/24 00:53:10;;;;;;;;;;;;;;;;;;1018083;29;970;-38
2021/11/24 00:53:44;;;;;;;;;;;;;;;;;;1018209;29;884;-37
2021/11/24 00:54:14;;;;;;;;;;;;;;;;;;1017987;29;796;-37
2021/11/24 00:54:45;;;;;;;;;;;;;;;;;;1018061;29;1083;-37
2021/11/24 00:55:15;;;;;;;;;;;;;;;;;;1017739;29;864;-34
2021/11/24 00:55:48;;;;;;;;;;;;;;;;;;1017832;29;1102;-36
2021/11/24 00:56:19;;;;;;;;;;;;;;;;;;1017150;29;1442;-36
2021/11/24 00:56:49;;;;;;;;;;;;;;;;;;1018114;29;811;-37
2021/11/24 00:57:27;;;;;;;;;;;;;;;;;;1018393;29;997;-37
2021/11/24 00:57:57;;;;;;;;;;;;;;;;;;1016894;29;1283;-35
2021/11/24 00:58:28;;;;;;;;;;;;;;;;;;1017593;29;1085;-35
2021/11/24 00:58:58;;;;;;;;;;;;;;;;;;1017374;29;913;-37
2021/11/24 00:59:29;;;;;;;;;;;;;;;;;;1017299;29;1057;-36
2021/11/24 00:59:59;;;;;;;;;;;;;;;;;;1021942;29;1086;-35
2021/11/24 01:00:30;;;;;;;;;;;;;;;;;;1018252;29;935;-34
2021/11/24 01:01:00;;;;;;;;;;;;;;;;;;1018273;29;933;-35
2021/11/24 01:01:36;;;;;;;;;;;;;;;;;;1018347;29;1058;-36
2021/11/24 01:02:07;;;;;;;;;;;;;;;;;;1017741;29;966;-37
2021/11/24 01:02:37;;;;;;;;;;;;;;;;;;1018394;29;839;-38
2021/11/24 01:03:11;;;;;;;;;;;;;;;;;;1017893;29;982;-38
2021/11/24 01:03:41;;;;;;;;;;;;;;;;;;1018180;29;847;-37
2021/11/24 01:04:12;;;;;;;;;;;;;;;;;;1018201;29;863;-37
2021/11/24 01:04:42;;;;;;;;;;;;;;;;;;1018038;29;940;-38
2021/11/24 01:05:13;;;;;;;;;;;;;;;;;;1018360;29;953;-35
2021/11/24 01:05:45;;;;;;;;;;;;;;;;;;1018237;29;1066;-35
2021/11/24 01:06:16;;;;;;;;;;;;;;;;;;1018094;29;792;-38
2021/11/24 01:06:46;;;;;;;;;;;;;;;;;;1018379;29;857;-35
2021/11/24 01:07:16;;;;;;;;;;;;;;;;;;1017869;29;1261;-37
2021/11/24 01:07:47;;;;;;;;;;;;;;;;;;1017995;29;1050;-37
2021/11/24 01:08:17;;;;;;;;;;;;;;;;;;1018053;29;862;-35
2021/11/24 01:08:48;;;;;;;;;;;;;;;;;;1017682;29;1356;-37
2021/11/24 01:09:18;;;;;;;;;;;;;;;;;;1018066;29;1042;-33
2021/11/24 01:09:52;;;;;;;;;;;;;;;;;;1017751;29;1931;-37
2021/11/24 01:10:22;;;;;;;;;;;;;;;;;;1018411;29;1026;-37
2021/11/24 01:10:55;;;;;;;;;;;;;;;;;;1017932;29;1152;-38
2021/11/24 01:11:26;;;;;;;;;;;;;;;;;;1018035;29;809;-35
2021/11/24 01:11:56;;;;;;;;;;;;;;;;;;1018101;29;1102;-38
2021/11/24 01:12:27;;;;;;;;;;;;;;;;;;1018220;29;1151;-36
2021/11/24 01:12:57;;;;;;;;;;;;;;;;;;1018030;29;788;-35
2021/11/24 01:13:31;;;;;;;;;;;;;;;;;;1018239;29;924;-35
2021/11/24 01:14:02;;;;;;;;;;;;;;;;;;1017814;29;978;-36
2021/11/24 01:14:33;;;;;;;;;;;;;;;;;;1018501;29;883;-35
2021/11/24 01:15:03;;;;;;;;;;;;;;;;;;1018176;29;943;-37
2021/11/24 01:15:34;;;;;;;;;;;;;;;;;;1018085;29;796;-35
2021/11/24 01:16:05;;;;;;;;;;;;;;;;;;1018197;29;931;-36
2021/11/24 01:16:36;;;;;;;;;;;;;;;;;;1017559;29;1939;-35
2021/11/24 01:17:06;;;;;;;;;;;;;;;;;;1018261;29;965;-37
2021/11/24 01:17:37;;;;;;;;;;;;;;;;;;1018147;29;1091;-39
2021/11/24 01:18:07;;;;;;;;;;;;;;;;;;1018093;29;843;-36
2021/11/24 01:18:38;;;;;;;;;;;;;;;;;;1018110;29;955;-37
2021/11/24 01:19:09;;;;;;;;;;;;;;;;;;1017876;29;889;-37
2021/11/24 01:19:40;;;;;;;;;;;;;;;;;;1018476;29;804;-38
2021/11/24 01:20:11;;;;;;;;;;;;;;;;;;1018057;29;923;-38
2021/11/24 01:20:42;;;;;;;;;;;;;;;;;;1017834;29;1466;-35
2021/11/24 01:21:12;;;;;;;;;;;;;;;;;;1018111;29;1031;-34
2021/11/24 01:21:45;;;;;;;;;;;;;;;;;;1017449;29;1248;-33
2021/11/24 01:22:16;;;;;;;;;;;;;;;;;;1017657;29;1434;-37
2021/11/24 01:22:46;;;;;;;;;;;;;;;;;;1017867;29;1241;-37
2021/11/24 01:23:17;;;;;;;;;;;;;;;;;;1018070;29;811;-35
2021/11/24 01:23:47;;;;;;;;;;;;;;;;;;1021794;29;1744;-38
2021/11/24 01:24:18;;;;;;;;;;;;;;;;;;1017037;29;1273;-36
2021/11/24 01:24:49;;;;;;;;;;;;;;;;;;1017621;29;938;-39
2021/11/24 01:25:19;;;;;;;;;;;;;;;;;;1017668;29;1026;-37
2021/11/24 01:25:50;;;;;;;;;;;;;;;;;;1017108;29;859;-35
2021/11/24 01:26:25;;;;;;;;;;;;;;;;;;1018328;29;1078;-36
2021/11/24 01:26:56;;;;;;;;;;;;;;;;;;1018040;29;895;-35
2021/11/24 01:27:27;;;;;;;;;;;;;;;;;;1018212;29;812;-38
2021/11/24 01:27:57;;;;;;;;;;;;;;;;;;1018444;29;1063;-35
2021/11/24 01:28:28;;;;;;;;;;;;;;;;;;1017332;29;1420;-38
2021/11/24 01:28:59;;;;;;;;;;;;;;;;;;1018332;29;996;-38
2021/11/24 01:29:29;;;;;;;;;;;;;;;;;;1017632;29;1899;-33
2021/11/24 01:30:00;;;;;;;;;;;;;;;;;;1018075;29;784;-36
2021/11/24 01:30:30;;;;;;;;;;;;;;;;;;1016949;29;1075;-36
2021/11/24 01:31:01;;;;;;;;;;;;;;;;;;1013988;29;792;-37
2021/11/24 01:31:31;;;;;;;;;;;;;;;;;;1013895;29;945;-36
2021/11/24 01:32:02;;;;;;;;;;;;;;;;;;1013946;29;938;-37
2021/11/24 01:32:32;;;;;;;;;;;;;;;;;;1013769;29;784;-37
2021/11/24 01:33:03;;;;;;;;;;;;;;;;;;1013911;29;1021;-37
2021/11/24 01:33:34;;;;;;;;;;;;;;;;;;1014032;29;839;-35
2021/11/24 01:34:04;;;;;;;;;;;;;;;;;;1014017;29;1207;-37
2021/11/24 01:34:34;;;;;;;;;;;;;;;;;;1014160;29;897;-36
2021/11/24 01:35:08;;;;;;;;;;;;;;;;;;1014165;29;942;-34
2021/11/24 01:35:39;;;;;;;;;;;;;;;;;;1014507;29;891;-34
2021/11/24 01:36:09;;;;;;;;;;;;;;;;;;1014155;29;940;-35
2021/11/24 01:36:40;;;;;;;;;;;;;;;;;;1014274;29;792;-34
2021/11/24 01:37:16;;;;;;;;;;;;;;;;;;1009597;29;908;-35
2021/11/24 01:37:50;;;;;;;;;;;;;;;;;;1009377;29;1233;-34
2021/11/24 01:38:20;;;;;;;;;;;;;;;;;;1009549;29;1079;-35
2021/11/24 01:38:51;;;;;;;;;;;;;;;;;;1011738;29;1114;-34
2021/11/24 01:39:21;;;;;;;;;;;;;;;;;;1015267;29;1117;-38
2021/11/24 01:39:55;;;;;;;;;;;;;;;;;;1014285;29;1563;-37
2021/11/24 01:40:25;;;;;;;;;;;;;;;;;;1014188;29;1541;-31
2021/11/24 01:40:56;;;;;;;;;;;;;;;;;;1014246;29;800;-39
2021/11/24 01:41:26;;;;;;;;;;;;;;;;;;1014243;29;921;-36
2021/11/24 01:41:57;;;;;;;;;;;;;;;;;;1014047;29;828;-35
2021/11/24 01:42:28;;;;;;;;;;;;;;;;;;1014502;29;972;-35
2021/11/24 01:42:59;;;;;;;;;;;;;;;;;;1013945;29;950;-36
2021/11/24 01:43:29;;;;;;;;;;;;;;;;;;1014259;29;923;-38
2021/11/24 01:44:00;;;;;;;;;;;;;;;;;;1009437;29;1008;-37
2021/11/24 01:44:33;;;;;;;;;;;;;;;;;;1009359;29;914;-32
2021/11/24 01:45:05;;;;;;;;;;;;;;;;;;1008806;29;1235;-36
2021/11/24 01:45:36;;;;;;;;;;;;;;;;;;1009973;29;1070;-36
2021/11/24 01:46:06;;;;;;;;;;;;;;;;;;1014132;29;875;-41
2021/11/24 01:46:37;;;;;;;;;;;;;;;;;;1014189;29;908;-35
2021/11/24 01:47:07;;;;;;;;;;;;;;;;;;1014011;29;815;-37
2021/11/24 01:47:38;;;;;;;;;;;;;;;;;;1014137;29;948;-37
2021/11/24 01:48:08;;;;;;;;;;;;;;;;;;1014003;29;894;-35
2021/11/24 01:48:39;;;;;;;;;;;;;;;;;;1014310;29;962;-32
2021/11/24 01:49:09;;;;;;;;;;;;;;;;;;1013944;29;1003;-33
2021/11/24 01:49:40;;;;;;;;;;;;;;;;;;1014067;29;1978;-37
2021/11/24 01:50:11;;;;;;;;;;;;;;;;;;1013523;29;959;-38
2021/11/24 01:50:42;;;;;;;;;;;;;;;;;;1013408;29;886;-38
2021/11/24 01:51:12;;;;;;;;;;;;;;;;;;1013259;29;1615;-37
2021/11/24 01:51:42;;;;;;;;;;;;;;;;;;1013617;29;988;-38
2021/11/24 01:52:13;;;;;;;;;;;;;;;;;;1013933;29;777;-37
2021/11/24 01:52:43;;;;;;;;;;;;;;;;;;1014406;29;897;-38
2021/11/24 01:53:18;;;;;;;;;;;;;;;;;;1013577;29;953;-37
2021/11/24 01:53:48;;;;;;;;;;;;;;;;;;1012798;29;951;-37
2021/11/24 01:54:19;;;;;;;;;;;;;;;;;;1013304;29;924;-36
2021/11/24 01:54:53;;;;;;;;;;;;;;;;;;1013299;29;958;-37
2021/11/24 01:55:24;;;;;;;;;;;;;;;;;;1013680;29;940;-37
2021/11/24 01:55:56;;;;;;;;;;;;;;;;;;1014040;29;1116;-36
2021/11/24 01:56:26;;;;;;;;;;;;;;;;;;1014135;29;954;-34
2021/11/24 01:57:00;;;;;;;;;;;;;;;;;;1014337;29;953;-36
2021/11/24 01:57:30;;;;;;;;;;;;;;;;;;1013938;29;1000;-38
2021/11/24 01:58:02;;;;;;;;;;;;;;;;;;1014096;29;811;-35
2021/11/24 01:58:34;;;;;;;;;;;;;;;;;;1014037;29;1054;-35
2021/11/24 01:59:05;;;;;;;;;;;;;;;;;;1013971;29;951;-33
2021/11/24 01:59:35;;;;;;;;;;;;;;;;;;1013187;29;967;-37
2021/11/24 02:00:06;;;;;;;;;;;;;;;;;;1013198;29;1094;-36
2021/11/24 02:00:42;;;;;;;;;;;;;;;;;;1013445;29;914;-37
2021/11/24 02:01:12;;;;;;;;;;;;;;;;;;1013674;29;1096;-35
2021/11/24 02:01:44;;;;;;;;;;;;;;;;;;1013570;29;1320;-36
2021/11/24 02:02:16;;;;;;;;;;;;;;;;;;1014078;29;986;-35
2021/11/24 02:02:47;;;;;;;;;;;;;;;;;;1014157;29;1002;-35
2021/11/24 02:03:17;;;;;;;;;;;;;;;;;;1013406;29;1394;-38
2021/11/24 02:03:48;;;;;;;;;;;;;;;;;;1014115;29;1086;-38
2021/11/24 02:04:19;;;;;;;;;;;;;;;;;;1013704;29;962;-35
2021/11/24 02:04:49;;;;;;;;;;;;;;;;;;1014208;29;910;-35
2021/11/24 02:05:20;;;;;;;;;;;;;;;;;;1013869;29;951;-37
2021/11/24 02:05:51;;;;;;;;;;;;;;;;;;1013946;29;914;-35
2021/11/24 02:06:21;;;;;;;;;;;;;;;;;;1014073;29;1071;-39
2021/11/24 02:06:52;;;;;;;;;;;;;;;;;;1014048;29;983;-36
2021/11/24 02:07:23;;;;;;;;;;;;;;;;;;1014133;29;934;-34
2021/11/24 02:07:53;;;;;;;;;;;;;;;;;;1014058;29;877;-34
2021/11/24 02:08:24;;;;;;;;;;;;;;;;;;1013714;29;847;-34
2021/11/24 02:08:54;;;;;;;;;;;;;;;;;;1012184;29;857;-36
2021/11/24 02:09:25;;;;;;;;;;;;;;;;;;1013687;29;960;-33
2021/11/24 02:09:55;;;;;;;;;;;;;;;;;;1014214;29;1915;-34
2021/11/24 02:10:26;;;;;;;;;;;;;;;;;;1013814;29;933;-37
2021/11/24 02:10:57;;;;;;;;;;;;;;;;;;1014039;29;732;-34
2021/11/24 02:11:28;;;;;;;;;;;;;;;;;;1013904;29;865;-33
2021/11/24 02:11:58;;;;;;;;;;;;;;;;;;1014096;29;955;-36
2021/11/24 02:12:36;;;;;;;;;;;;;;;;;;1014181;29;902;-37
2021/11/24 02:13:06;;;;;;;;;;;;;;;;;;1014118;29;892;-36
2021/11/24 02:13:36;;;;;;;;;;;;;;;;;;1013612;29;1041;-37
2021/11/24 02:14:07;;;;;;;;;;;;;;;;;;1014147;29;940;-37
2021/11/24 02:14:45;;;;;;;;;;;;;;;;;;1013773;29;958;-34
2021/11/24 02:15:15;;;;;;;;;;;;;;;;;;1014102;29;962;-37
2021/11/24 02:15:48;;;;;;;;;;;;;;;;;;1014005;29;944;-36
2021/11/24 02:16:19;;;;;;;;;;;;;;;;;;1014169;29;841;-34
2021/11/24 02:16:52;;;;;;;;;;;;;;;;;;1013850;29;849;-34
2021/11/24 02:17:23;;;;;;;;;;;;;;;;;;1014028;29;924;-38
2021/11/24 02:17:54;;;;;;;;;;;;;;;;;;1014120;29;915;-36
2021/11/24 02:18:24;;;;;;;;;;;;;;;;;;1014091;29;870;-38
2021/11/24 02:18:55;;;;;;;;;;;;;;;;;;1014091;29;979;-35
2021/11/24 02:19:30;;;;;;;;;;;;;;;;;;1013765;29;768;-35
2021/11/24 02:20:03;;;;;;;;;;;;;;;;;;1014197;29;1000;-36
2021/11/24 02:20:37;;;;;;;;;;;;;;;;;;1013748;29;1013;-35
2021/11/24 02:21:08;;;;;;;;;;;;;;;;;;1013802;29;923;-37
2021/11/24 02:21:43;;;;;;;;;;;;;;;;;;1013316;29;1293;-37
2021/11/24 02:22:14;;;;;;;;;;;;;;;;;;1013102;29;1236;-37
2021/11/24 02:22:44;;;;;;;;;;;;;;;;;;1013773;29;922;-38
2021/11/24 02:23:15;;;;;;;;;;;;;;;;;;1013912;29;1331;-36
2021/11/24 02:23:46;;;;;;;;;;;;;;;;;;1013814;29;859;-35
2021/11/24 02:24:17;;;;;;;;;;;;;;;;;;1014185;29;968;-36
2021/11/24 02:24:48;;;;;;;;;;;;;;;;;;1013462;29;1024;-38
2021/11/24 02:25:19;;;;;;;;;;;;;;;;;;1014106;29;863;-36
2021/11/24 02:25:49;;;;;;;;;;;;;;;;;;1012578;29;973;-33
2021/11/24 02:26:21;;;;;;;;;;;;;;;;;;1013337;29;1184;-37
2021/11/24 02:26:52;;;;;;;;;;;;;;;;;;1013547;29;1011;-37
2021/11/24 02:27:23;;;;;;;;;;;;;;;;;;1009199;29;1000;-37
2021/11/24 02:27:56;;;;;;;;;;;;;;;;;;1009541;29;946;-34
2021/11/24 02:28:26;;;;;;;;;;;;;;;;;;1009392;29;871;-35
2021/11/24 02:28:57;;;;;;;;;;;;;;;;;;1006364;29;1235;-33
2021/11/24 02:29:28;;;;;;;;;;;;;;;;;;1013345;29;869;-36
2021/11/24 02:29:58;;;;;;;;;;;;;;;;;;1013329;29;1964;-36
2021/11/24 02:30:29;;;;;;;;;;;;;;;;;;1013733;29;1261;-37
2021/11/24 02:31:00;;;;;;;;;;;;;;;;;;1014093;29;1096;-37
2021/11/24 02:31:30;;;;;;;;;;;;;;;;;;1016864;29;1012;-37
2021/11/24 02:32:02;;;;;;;;;;;;;;;;;;1017378;29;1280;-35
2021/11/24 02:32:33;;;;;;;;;;;;;;;;;;1017111;29;1615;-36
2021/11/24 02:33:04;;;;;;;;;;;;;;;;;;1017909;29;800;-34
2021/11/24 02:33:34;;;;;;;;;;;;;;;;;;1020900;29;1030;-34
2021/11/24 02:34:06;;;;;;;;;;;;;;;;;;1016829;29;928;-35
2021/11/24 02:34:36;;;;;;;;;;;;;;;;;;1017062;29;1039;-36
2021/11/24 02:35:07;;;;;;;;;;;;;;;;;;1017040;29;993;-37
2021/11/24 02:35:43;;;;;;;;;;;;;;;;;;1016424;29;911;-34
2021/11/24 02:36:14;;;;;;;;;;;;;;;;;;1017985;29;1054;-37
2021/11/24 02:36:45;;;;;;;;;;;;;;;;;;1017510;29;1061;-37
2021/11/24 02:37:15;;;;;;;;;;;;;;;;;;1018045;29;1320;-38
2021/11/24 02:37:45;;;;;;;;;;;;;;;;;;1017728;29;990;-37
2021/11/24 02:38:17;;;;;;;;;;;;;;;;;;1017699;29;910;-36
2021/11/24 02:38:47;;;;;;;;;;;;;;;;;;1017650;29;1019;-33
2021/11/24 02:39:18;;;;;;;;;;;;;;;;;;1017725;29;851;-35
2021/11/24 02:39:49;;;;;;;;;;;;;;;;;;1017787;29;799;-35
2021/11/24 02:40:20;;;;;;;;;;;;;;;;;;1017909;29;917;-36
2021/11/24 02:40:50;;;;;;;;;;;;;;;;;;1017093;29;1281;-38
2021/11/24 02:41:21;;;;;;;;;;;;;;;;;;1017720;29;1004;-37
2021/11/24 02:41:51;;;;;;;;;;;;;;;;;;1017306;29;964;-35
2021/11/24 02:42:22;;;;;;;;;;;;;;;;;;1017584;29;946;-37
2021/11/24 02:42:52;;;;;;;;;;;;;;;;;;1021556;29;927;-35
2021/11/24 02:43:23;;;;;;;;;;;;;;;;;;1017724;29;815;-37
2021/11/24 02:43:53;;;;;;;;;;;;;;;;;;1017765;29;1356;-37
2021/11/24 02:44:24;;;;;;;;;;;;;;;;;;1017708;29;888;-36
2021/11/24 02:44:56;;;;;;;;;;;;;;;;;;1017793;29;828;-37
2021/11/24 02:45:27;;;;;;;;;;;;;;;;;;1017990;29;1008;-38
2021/11/24 02:45:57;;;;;;;;;;;;;;;;;;1017590;29;921;-36
2021/11/24 02:46:27;;;;;;;;;;;;;;;;;;1017880;29;1113;-37
2021/11/24 02:47:06;;;;;;;;;;;;;;;;;;1017745;29;955;-37
2021/11/24 02:47:37;;;;;;;;;;;;;;;;;;1017691;29;808;-36
2021/11/24 02:48:07;;;;;;;;;;;;;;;;;;1017992;29;977;-38
2021/11/24 02:48:41;;;;;;;;;;;;;;;;;;1017553;29;898;-36
2021/11/24 02:49:17;;;;;;;;;;;;;;;;;;1017524;29;1076;-34
2021/11/24 02:49:48;;;;;;;;;;;;;;;;;;1017702;29;2046;-38
2021/11/24 02:50:19;;;;;;;;;;;;;;;;;;1017470;29;937;-38
2021/11/24 02:50:52;;;;;;;;;;;;;;;;;;1017831;29;796;-38
2021/11/24 02:51:22;;;;;;;;;;;;;;;;;;1021331;29;884;-36
2021/11/24 02:51:53;;;;;;;;;;;;;;;;;;1020976;29;1365;-34
2021/11/24 02:52:23;;;;;;;;;;;;;;;;;;1021526;29;1011;-34
2021/11/24 02:52:54;;;;;;;;;;;;;;;;;;1021098;29;952;-35
2021/11/24 02:53:28;;;;;;;;;;;;;;;;;;1017814;29;1109;-38
2021/11/24 02:53:59;;;;;;;;;;;;;;;;;;1017598;29;873;-36
2021/11/24 02:54:29;;;;;;;;;;;;;;;;;;1017798;29;851;-36
2021/11/24 02:55:01;;;;;;;;;;;;;;;;;;1017664;29;1166;-38
2021/11/24 02:55:31;;;;;;;;;;;;;;;;;;1017811;29;1019;-37
2021/11/24 02:56:02;;;;;;;;;;;;;;;;;;1017762;29;627;-38
2021/11/24 02:56:33;;;;;;;;;;;;;;;;;;1018087;29;1025;-36
2021/11/24 02:57:04;;;;;;;;;;;;;;;;;;1017479;29;870;-33
2021/11/24 02:57:39;;;;;;;;;;;;;;;;;;1017851;29;1059;-35
2021/11/24 02:58:10;;;;;;;;;;;;;;;;;;1017849;29;883;-38
2021/11/24 02:58:40;;;;;;;;;;;;;;;;;;1017614;29;906;-38
2021/11/24 02:59:11;;;;;;;;;;;;;;;;;;1017728;29;1095;-37
2021/11/24 02:59:41;;;;;;;;;;;;;;;;;;1017600;29;1046;-35
2021/11/24 03:00:26;;;;;;;;;;;;;;;;;;1017843;29;823;-34
2021/11/24 03:01:00;;;;;;;;;;;;;;;;;;1017707;29;947;-38
2021/11/24 03:01:31;;;;;;;;;;;;;;;;;;1017892;29;1290;-36
2021/11/24 03:02:01;;;;;;;;;;;;;;;;;;1017677;29;816;-35
2021/11/24 03:02:32;;;;;;;;;;;;;;;;;;1017795;29;887;-39
2021/11/24 03:03:02;;;;;;;;;;;;;;;;;;1017669;29;784;-37
2021/11/24 03:03:33;;;;;;;;;;;;;;;;;;1017782;29;1018;-35
2021/11/24 03:04:12;;;;;;;;;;;;;;;;;;1017640;29;1006;-36
2021/11/24 03:04:42;;;;;;;;;;;;;;;;;;1017716;29;780;-36
2021/11/24 03:05:13;;;;;;;;;;;;;;;;;;1017709;29;893;-36
2021/11/24 03:05:44;;;;;;;;;;;;;;;;;;1017490;29;963;-38
2021/11/24 03:06:15;;;;;;;;;;;;;;;;;;1017851;29;906;-36
2021/11/24 03:06:45;;;;;;;;;;;;;;;;;;1017806;29;920;-37
2021/11/24 03:07:16;;;;;;;;;;;;;;;;;;1017704;29;807;-38
2021/11/24 03:07:46;;;;;;;;;;;;;;;;;;1017785;29;860;-35
2021/11/24 03:08:17;;;;;;;;;;;;;;;;;;1021169;29;1059;-37
2021/11/24 03:08:48;;;;;;;;;;;;;;;;;;1020536;29;1106;-37
2021/11/24 03:09:18;;;;;;;;;;;;;;;;;;1021322;29;1114;-38
2021/11/24 03:09:52;;;;;;;;;;;;;;;;;;1017331;29;1919;-37
2021/11/24 03:10:22;;;;;;;;;;;;;;;;;;1009026;29;1162;-35
2021/11/24 03:10:53;;;;;;;;;;;;;;;;;;1009099;29;1072;-36
2021/11/24 03:11:23;;;;;;;;;;;;;;;;;;1009297;29;1412;-37
2021/11/24 03:11:55;;;;;;;;;;;;;;;;;;1010185;29;1005;-35
2021/11/24 03:12:25;;;;;;;;;;;;;;;;;;1017575;29;1101;-34
2021/11/24 03:12:57;;;;;;;;;;;;;;;;;;1017984;29;952;-38
2021/11/24 03:13:30;;;;;;;;;;;;;;;;;;1017631;29;1000;-33
2021/11/24 03:14:00;;;;;;;;;;;;;;;;;;1017498;29;907;-38
2021/11/24 03:14:34;;;;;;;;;;;;;;;;;;1017654;29;1011;-36
2021/11/24 03:15:08;;;;;;;;;;;;;;;;;;1016714;29;1044;-35
2021/11/24 03:15:39;;;;;;;;;;;;;;;;;;1016924;29;1127;-38
2021/11/24 03:16:10;;;;;;;;;;;;;;;;;;1016909;29;992;-36
2021/11/24 03:16:40;;;;;;;;;;;;;;;;;;1017198;29;1003;-36
2021/11/24 03:17:10;;;;;;;;;;;;;;;;;;1017170;29;1397;-36
2021/11/24 03:17:41;;;;;;;;;;;;;;;;;;1017492;29;1148;-35
2021/11/24 03:18:11;;;;;;;;;;;;;;;;;;1017846;29;777;-34
2021/11/24 03:18:51;;;;;;;;;;;;;;;;;;1017420;29;1114;-36
2021/11/24 03:19:21;;;;;;;;;;;;;;;;;;1017629;29;903;-34
2021/11/24 03:19:52;;;;;;;;;;;;;;;;;;1017610;29;835;-35
2021/11/24 03:20:26;;;;;;;;;;;;;;;;;;1017648;29;1017;-35
2021/11/24 03:20:57;;;;;;;;;;;;;;;;;;1017513;29;1070;-38
2021/11/24 03:21:27;;;;;;;;;;;;;;;;;;1017733;29;1013;-38
2021/11/24 03:21:57;;;;;;;;;;;;;;;;;;1017641;29;1403;-37
2021/11/24 03:22:28;;;;;;;;;;;;;;;;;;1017379;29;1380;-35
2021/11/24 03:23:00;;;;;;;;;;;;;;;;;;1017790;29;1133;-37
2021/11/24 03:23:30;;;;;;;;;;;;;;;;;;1017528;29;1121;-35
2021/11/24 03:24:01;;;;;;;;;;;;;;;;;;1017566;29;1005;-38
2021/11/24 03:24:31;;;;;;;;;;;;;;;;;;1017327;29;1415;-36
2021/11/24 03:25:03;;;;;;;;;;;;;;;;;;1020776;29;1014;-36
2021/11/24 03:25:34;;;;;;;;;;;;;;;;;;1012979;29;980;-37
2021/11/24 03:26:04;;;;;;;;;;;;;;;;;;1012902;29;932;-36
2021/11/24 03:26:35;;;;;;;;;;;;;;;;;;1013090;29;875;-34
2021/11/24 03:27:05;;;;;;;;;;;;;;;;;;1009157;29;1045;-34
2021/11/24 03:27:39;;;;;;;;;;;;;;;;;;1017885;29;807;-38
2021/11/24 03:28:13;;;;;;;;;;;;;;;;;;1017566;29;1057;-34
2021/11/24 03:28:44;;;;;;;;;;;;;;;;;;1017446;29;988;-35
2021/11/24 03:29:14;;;;;;;;;;;;;;;;;;1017626;29;854;-38
2021/11/24 03:29:44;;;;;;;;;;;;;;;;;;1017536;29;1922;-39
2021/11/24 03:30:17;;;;;;;;;;;;;;;;;;1017815;29;823;-39
2021/11/24 03:30:47;;;;;;;;;;;;;;;;;;1017238;29;1536;-36
2021/11/24 03:31:18;;;;;;;;;;;;;;;;;;1014459;29;1040;-35
2021/11/24 03:31:48;;;;;;;;;;;;;;;;;;1013695;29;1185;-37
2021/11/24 03:32:19;;;;;;;;;;;;;;;;;;1014004;29;1011;-38
2021/11/24 03:32:50;;;;;;;;;;;;;;;;;;1013449;29;918;-37
2021/11/24 03:33:21;;;;;;;;;;;;;;;;;;1013716;29;941;-37
2021/11/24 03:33:51;;;;;;;;;;;;;;;;;;1013731;29;881;-36
2021/11/24 03:34:22;;;;;;;;;;;;;;;;;;1013611;29;886;-38
2021/11/24 03:34:53;;;;;;;;;;;;;;;;;;1013876;29;893;-37
2021/11/24 03:35:24;;;;;;;;;;;;;;;;;;1013700;29;958;-37
2021/11/24 03:35:55;;;;;;;;;;;;;;;;;;1012775;29;1047;-35
2021/11/24 03:36:26;;;;;;;;;;;;;;;;;;1012934;29;1029;-38
2021/11/24 03:36:56;;;;;;;;;;;;;;;;;;1013007;29;787;-38
2021/11/24 03:37:26;;;;;;;;;;;;;;;;;;1013010;29;992;-34
2021/11/24 03:37:58;;;;;;;;;;;;;;;;;;1012894;29;1035;-34
2021/11/24 03:38:28;;;;;;;;;;;;;;;;;;1012984;29;1104;-39
2021/11/24 03:38:59;;;;;;;;;;;;;;;;;;1012671;29;988;-38